Time;durP1;ratioP1;P1;durP2;ratioP2;P2;SDS_P1;SDS_P2;PMS_P1;PMS_P2;Temp;Humidity;BMP_temperature;BMP_pressure;BME280_temperature;BME280_humidity;BME280_pressure;Samples;Min_cycle;Max_cycle;Signal;HPM_P1;HPM_P2
2021/12/04 00:00:46;;;;;;;23.50;9.40;;;;;;;-1.99;64.73;98090.27;105121;1322;22670;-81
2021/12/04 00:03:15;;;;;;;13.70;6.30;;;;;;;-2.01;64.82;98083.33;105144;1324;22736;-81
2021/12/04 00:05:53;;;;;;;17.80;6.40;;;;;;;-2.04;64.86;98076.22;105164;1325;22588;-81
2021/12/04 00:08:22;;;;;;;18.40;7.10;;;;;;;-2.06;64.95;98070.48;105175;1324;23410;-81
2021/12/04 00:10:49;;;;;;;17.10;7.40;;;;;;;-2.08;65.05;98066.27;105151;1324;23355;-81
2021/12/04 00:13:16;;;;;;;14.20;5.70;;;;;;;-2.08;65.04;98066.78;105113;1324;22748;-82
2021/12/04 00:15:43;;;;;;;17.50;7.20;;;;;;;-2.06;65.13;98066.20;105043;1324;22750;-81
2021/12/04 00:18:11;;;;;;;19.60;8.40;;;;;;;-2.02;65.30;98066.11;105116;1325;22585;-81
2021/12/04 00:20:38;;;;;;;18.40;6.80;;;;;;;-1.98;65.47;98062.09;105128;1325;22598;-79
2021/12/04 00:23:05;;;;;;;15.10;6.50;;;;;;;-1.92;66.12;98059.05;105089;1323;22600;-80
2021/12/04 00:25:33;;;;;;;15.10;6.70;;;;;;;-1.90;66.54;98057.13;105105;1323;26146;-80
2021/12/04 00:28:00;;;;;;;16.90;6.60;;;;;;;-1.89;66.14;98055.40;105132;1324;22590;-81
2021/12/04 00:30:27;;;;;;;21.00;7.40;;;;;;;-1.92;66.11;98054.42;105134;1325;22736;-81
2021/12/04 00:32:58;;;;;;;16.30;6.90;;;;;;;-1.93;65.75;98049.17;105163;1325;22721;-81
2021/12/04 00:49:11;;;;;;;12.80;5.30;;;;;;;-1.98;65.61;98049.65;105134;1322;22665;-80
2021/12/04 00:51:42;;;;;;;18.40;7.80;;;;;;;-1.98;65.57;98049.83;105146;1322;23441;-80
2021/12/04 00:54:12;;;;;;;14.30;6.00;;;;;;;-1.99;65.73;98048.98;105141;1324;22595;-81
2021/12/04 00:56:42;;;;;;;15.60;6.40;;;;;;;-2.02;65.76;98050.58;105108;1325;25309;-79
2021/12/04 00:59:10;;;;;;;17.50;7.60;;;;;;;-2.03;65.95;98048.55;105112;1325;22797;-81
2021/12/04 01:01:39;;;;;;;18.40;8.20;;;;;;;-1.97;66.29;98049.10;105003;1324;22620;-81
2021/12/04 01:04:16;;;;;;;16.10;6.40;;;;;;;-1.92;66.82;98053.41;105105;1324;22583;-81
2021/12/04 01:06:44;;;;;;;14.50;6.00;;;;;;;-1.89;67.36;98045.33;105108;1325;22726;-80
2021/12/04 01:09:12;;;;;;;15.70;6.40;;;;;;;-1.90;67.06;98039.55;105090;1325;22523;-81
2021/12/04 01:11:41;;;;;;;12.40;5.50;;;;;;;-1.89;66.63;98038.84;105125;1325;22615;-80
2021/12/04 01:14:10;;;;;;;12.00;5.80;;;;;;;-1.91;66.55;98036.14;105091;1324;22653;-81
2021/12/04 01:16:37;;;;;;;14.80;6.50;;;;;;;-1.90;66.52;98034.26;105110;1324;24293;-82
2021/12/04 01:19:05;;;;;;;16.10;6.10;;;;;;;-1.91;66.40;98033.08;105110;1321;23964;-81
2021/12/04 01:21:32;;;;;;;15.10;6.40;;;;;;;-1.93;66.40;98032.09;105134;1322;22645;-81
2021/12/04 01:23:59;;;;;;;15.70;7.20;;;;;;;-1.95;66.40;98034.71;105168;1325;22835;-80
2021/12/04 01:26:26;;;;;;;16.60;7.10;;;;;;;-1.99;66.30;98032.09;105128;1325;22589;-82
2021/12/04 01:28:54;;;;;;;13.10;6.00;;;;;;;-2.01;66.30;98031.79;105116;1325;22659;-79
2021/12/04 01:31:21;;;;;;;15.60;5.90;;;;;;;-2.05;66.47;98027.96;105116;1323;22713;-81
2021/12/04 01:33:48;;;;;;;14.70;5.80;;;;;;;-2.10;66.60;98024.32;105083;1325;22709;-81
2021/12/04 01:36:15;;;;;;;21.10;6.60;;;;;;;-2.13;66.56;98016.72;105164;1325;22648;-83
2021/12/04 01:38:42;;;;;;;18.40;7.10;;;;;;;-2.15;66.39;98013.88;105171;1325;22586;-82
2021/12/04 01:41:09;;;;;;;14.10;6.90;;;;;;;-2.18;66.59;98009.85;105134;1325;22589;-80
2021/12/04 01:43:37;;;;;;;18.90;8.70;;;;;;;-2.19;66.53;98010.56;105105;1322;22638;-80
2021/12/04 01:46:04;;;;;;;18.80;9.20;;;;;;;-2.18;67.02;98004.56;105378;1322;22682;-80
2021/12/04 01:48:32;;;;;;;19.60;8.30;;;;;;;-2.18;67.42;98006.61;105412;1325;22596;-80
2021/12/04 01:50:59;;;;;;;18.00;7.90;;;;;;;-2.16;68.10;98004.20;105428;1322;22600;-79
2021/12/04 01:53:27;;;;;;;20.30;9.00;;;;;;;-2.20;68.07;98002.23;105440;1324;22588;-82
2021/12/04 01:55:56;;;;;;;18.70;7.50;;;;;;;-2.25;67.66;98000.83;105457;1324;22599;-80
2021/12/04 01:58:25;;;;;;;15.40;6.70;;;;;;;-2.29;67.47;98000.06;105417;1323;22595;-80
2021/12/04 02:00:53;;;;;;;18.00;8.30;;;;;;;-2.33;67.30;97994.85;105395;1325;22799;-77
2021/12/04 02:03:20;;;;;;;15.40;7.90;;;;;;;-2.36;67.13;97990.84;105326;1325;22569;-78
2021/12/04 02:05:49;;;;;;;18.30;7.30;;;;;;;-2.40;67.48;97989.55;105387;1324;24373;-78
2021/12/04 02:08:19;;;;;;;17.20;6.70;;;;;;;-2.42;67.30;97986.91;105383;1324;22722;-79
2021/12/04 02:10:49;;;;;;;20.90;8.00;;;;;;;-2.45;67.70;97985.61;105408;1324;22660;-78
2021/12/04 02:13:17;;;;;;;15.00;5.90;;;;;;;-2.48;67.37;97981.73;105437;1324;23976;-78
2021/12/04 02:15:46;;;;;;;15.20;6.00;;;;;;;-2.48;67.41;97978.84;105435;1325;24368;-77
2021/12/04 02:18:15;;;;;;;17.10;6.40;;;;;;;-2.51;67.50;97982.36;105421;1325;22655;-79
2021/12/04 02:20:42;;;;;;;18.00;8.10;;;;;;;-2.51;67.59;97979.28;105469;1324;22690;-79
2021/12/04 02:23:10;;;;;;;21.10;8.60;;;;;;;-2.46;67.90;97981.02;105431;1324;22609;-79
2021/12/04 02:25:38;;;;;;;20.20;7.80;;;;;;;-2.42;68.30;97975.30;105414;1322;22599;-78
2021/12/04 02:28:08;;;;;;;19.90;7.80;;;;;;;-2.38;69.20;97970.60;105440;1318;22579;-80
2021/12/04 02:30:38;;;;;;;22.20;9.00;;;;;;;-2.40;69.06;97965.17;105442;1325;22592;-80
2021/12/04 02:33:13;;;;;;;17.60;7.70;;;;;;;-2.41;68.75;97957.55;105434;1325;22580;-80
2021/12/04 02:35:47;;;;;;;22.40;8.60;;;;;;;-2.43;68.41;97950.78;105454;1325;22595;-80
2021/12/04 02:38:17;;;;;;;30.10;11.10;;;;;;;-2.43;68.21;97953.52;105416;1325;22596;-81
2021/12/04 02:40:46;;;;;;;20.80;9.40;;;;;;;-2.43;68.17;97948.06;105437;1324;22658;-79
2021/12/04 02:43:13;;;;;;;26.80;10.20;;;;;;;-2.46;68.17;97943.69;105432;1325;25954;-80
2021/12/04 02:45:42;;;;;;;18.00;7.50;;;;;;;-2.48;68.21;97945.59;105422;1325;22565;-79
2021/12/04 02:48:11;;;;;;;16.40;6.90;;;;;;;-2.48;68.13;97951.40;105459;1324;22588;-82
2021/12/04 02:50:39;;;;;;;12.60;5.90;;;;;;;-2.49;68.03;97947.84;105469;1324;22598;-83
2021/12/04 02:53:06;;;;;;;18.20;7.80;;;;;;;-2.50;68.07;97951.96;105385;1324;22614;-83
2021/12/04 02:55:34;;;;;;;18.20;8.50;;;;;;;-2.52;68.19;97950.82;105382;1322;22651;-83
2021/12/04 02:58:02;;;;;;;16.20;7.70;;;;;;;-2.47;68.75;97953.94;105415;1325;26655;-81
2021/12/04 03:00:30;;;;;;;18.40;7.40;;;;;;;-2.45;69.48;97952.86;105483;1324;26653;-81
2021/12/04 03:02:57;;;;;;;18.10;7.70;;;;;;;-2.42;69.94;97951.29;105439;1324;22627;-82
2021/12/04 03:05:26;;;;;;;20.00;8.20;;;;;;;-2.43;69.76;97949.92;105437;1325;22667;-80
2021/12/04 03:07:58;;;;;;;17.20;8.00;;;;;;;-2.43;69.58;97942.08;105432;1325;22621;-80
2021/12/04 03:10:26;;;;;;;20.90;9.30;;;;;;;-2.43;69.15;97939.53;105319;1325;22669;-80
2021/12/04 03:12:54;;;;;;;20.70;10.00;;;;;;;-2.45;69.07;97937.70;105456;1324;22604;-80
2021/12/04 03:15:22;;;;;;;20.60;8.20;;;;;;;-2.45;68.84;97934.45;105442;1323;22595;-81
2021/12/04 03:17:50;;;;;;;18.90;8.10;;;;;;;-2.45;68.65;97931.55;105439;1324;22678;-81
2021/12/04 03:20:19;;;;;;;23.70;10.80;;;;;;;-2.46;68.83;97927.65;105430;1325;25379;-79
2021/12/04 03:22:47;;;;;;;37.00;14.30;;;;;;;-2.46;68.75;97925.95;105147;1324;24659;-82
2021/12/04 03:25:18;;;;;;;54.80;19.60;;;;;;;-2.48;68.91;97919.86;105126;1324;27969;-82
2021/12/04 03:27:48;;;;;;;66.60;24.40;;;;;;;-2.49;69.14;97912.02;105128;1325;22654;-82
2021/12/04 03:41:08;;;;;;;16.60;8.00;;;;;;;-2.32;70.73;97899.17;105180;1323;22677;-81
2021/12/04 03:43:35;;;;;;;15.60;7.00;;;;;;;-2.33;70.42;97895.92;105107;1325;22633;-82
2021/12/04 03:46:04;;;;;;;15.80;7.40;;;;;;;-2.34;70.12;97898.52;105101;1325;22610;-82
2021/12/04 03:51:02;;;;;;;16.40;7.60;;;;;;;-2.33;69.52;97892.20;105147;1324;22629;-82
2021/12/04 03:53:30;;;;;;;16.70;7.10;;;;;;;-2.34;69.40;97894.29;105154;1324;25311;-82
2021/12/04 03:55:57;;;;;;;13.10;7.00;;;;;;;-2.36;69.47;97891.07;105124;1324;22719;-81
2021/12/04 03:58:24;;;;;;;11.40;5.10;;;;;;;-2.35;69.11;97882.71;105076;1322;22654;-82
2021/12/04 04:00:52;;;;;;;15.60;6.70;;;;;;;-2.36;69.15;97878.12;105106;1325;22588;-82
2021/12/04 04:03:19;;;;;;;12.60;5.10;;;;;;;-2.36;69.35;97879.14;105008;1325;22651;-82
2021/12/04 04:05:47;;;;;;;14.40;6.20;;;;;;;-2.34;69.13;97869.55;105154;1322;22814;-82
2021/12/04 04:08:15;;;;;;;11.80;5.90;;;;;;;-2.33;68.97;97862.73;105110;1325;22682;-81
2021/12/04 04:10:43;;;;;;;13.10;5.60;;;;;;;-2.33;69.06;97860.14;105082;1323;23407;-83
2021/12/04 04:13:12;;;;;;;13.30;5.90;;;;;;;-2.33;68.97;97861.85;105124;1324;22593;-79
2021/12/04 04:15:40;;;;;;;14.10;7.20;;;;;;;-2.24;69.33;97858.36;105141;1324;23490;-80
2021/12/04 04:18:08;;;;;;;16.10;7.10;;;;;;;-2.19;69.74;97860.98;105003;1325;22592;-80
2021/12/04 04:20:35;;;;;;;14.30;6.80;;;;;;;-2.16;70.38;97855.11;105147;1325;22602;-81
2021/12/04 04:23:03;;;;;;;20.80;7.50;;;;;;;-2.16;70.05;97848.95;105104;1325;22639;-81
2021/12/04 04:25:30;;;;;;;14.20;6.90;;;;;;;-2.17;69.69;97849.84;105117;1324;24126;-80
2021/12/04 04:27:58;;;;;;;14.80;7.10;;;;;;;-2.16;69.38;97848.61;105128;1325;22654;-80
2021/12/04 04:30:25;;;;;;;17.00;7.80;;;;;;;-2.18;69.30;97846.61;105142;1325;22632;-80
2021/12/04 04:32:54;;;;;;;13.90;7.50;;;;;;;-2.19;69.20;97852.61;105113;1322;22602;-80
2021/12/04 04:35:24;;;;;;;12.30;6.00;;;;;;;-2.20;69.02;97846.67;105127;1324;22829;-80
2021/12/04 05:00:02;;;;;;;25.00;10.90;;;;;;;-2.40;69.07;97788.16;105150;1324;22572;-79
2021/12/04 05:13:23;;;;;;;21.50;10.60;;;;;;;-2.42;69.04;97776.66;105124;1325;22660;-80
2021/12/04 05:21:03;;;;;;;15.70;7.80;;;;;;;-2.45;68.83;97774.19;105134;1324;24447;-79
2021/12/04 05:23:34;;;;;;;19.80;9.70;;;;;;;-2.45;68.50;97773.16;105058;1323;23474;-79
2021/12/04 05:26:04;;;;;;;12.90;6.70;;;;;;;-2.44;68.67;97775.52;105132;1324;22592;-80
2021/12/04 05:28:32;;;;;;;27.30;13.80;;;;;;;-2.43;68.33;97766.80;105134;1325;22599;-79
2021/12/04 05:30:59;;;;;;;17.70;9.70;;;;;;;-2.42;68.38;97764.20;105155;1324;22616;-81
2021/12/04 05:33:27;;;;;;;13.00;6.90;;;;;;;-2.40;68.29;97761.76;105166;1324;22629;-82
2021/12/04 05:35:54;;;;;;;18.90;9.80;;;;;;;-2.37;68.08;97762.20;105149;1325;22600;-80
2021/12/04 05:38:22;;;;;;;21.70;10.30;;;;;;;-2.30;68.51;97763.17;105096;1324;22650;-80
2021/12/04 05:40:49;;;;;;;20.80;12.00;;;;;;;-2.23;69.00;97764.02;105127;1325;22591;-81
2021/12/04 05:43:18;;;;;;;34.20;15.90;;;;;;;-2.18;69.66;97768.49;105062;1324;22735;-82
2021/12/04 05:45:50;;;;;;;16.70;7.80;;;;;;;-2.19;69.39;97773.29;105131;1323;25944;-81
2021/12/04 05:48:25;;;;;;;30.20;16.10;;;;;;;-2.19;68.95;97769.36;105136;1324;22626;-80
2021/12/04 05:56:29;;;;;;;15.90;8.90;;;;;;;-2.21;68.19;97765.15;105139;1325;24431;-82
2021/12/04 05:58:59;;;;;;;17.40;8.50;;;;;;;-2.22;68.29;97762.79;104939;1325;22774;-82
2021/12/04 06:01:28;;;;;;;22.20;9.00;;;;;;;-2.23;68.12;97759.77;105090;1324;23987;-81
2021/12/04 06:03:56;;;;;;;21.20;9.70;;;;;;;-2.26;67.97;97759.33;105101;1323;22666;-83
2021/12/04 06:06:23;;;;;;;21.20;10.40;;;;;;;-2.29;68.09;97766.23;105035;1325;22582;-83
2021/12/04 06:08:50;;;;;;;23.90;11.00;;;;;;;-2.34;68.09;97762.60;105138;1325;22739;-82
2021/12/04 06:11:17;;;;;;;25.30;12.00;;;;;;;-2.36;67.92;97758.08;105153;1324;22577;-83
2021/12/04 06:13:44;;;;;;;34.40;16.70;;;;;;;-2.41;67.94;97758.53;105117;1323;22570;-83
2021/12/04 06:16:11;;;;;;;36.80;17.20;;;;;;;-2.45;67.80;97760.02;105099;1324;22611;-83
2021/12/04 06:18:39;;;;;;;36.00;15.40;;;;;;;-2.49;67.84;97758.76;104977;1322;22739;-83
2021/12/04 06:23:51;;;;;;;32.80;15.00;;;;;;;-2.58;68.00;97754.09;105068;1325;22721;-83
2021/12/04 06:26:18;;;;;;;29.50;15.00;;;;;;;-2.62;67.88;97757.92;105131;1324;25464;-83
2021/12/04 06:28:46;;;;;;;38.80;18.00;;;;;;;-2.66;67.76;97750.51;105133;1324;23466;-81
2021/12/04 06:31:14;;;;;;;31.80;16.40;;;;;;;-2.63;68.02;97751.65;105156;1322;23443;-83
2021/12/04 06:33:42;;;;;;;29.60;15.30;;;;;;;-2.62;68.47;97755.71;105121;1325;26127;-82
2021/12/04 06:36:09;;;;;;;28.80;13.90;;;;;;;-2.62;69.41;97762.70;105124;1322;22658;-80
2021/12/04 06:38:37;;;;;;;25.90;12.80;;;;;;;-2.67;69.40;97768.42;105118;1324;22610;-80
2021/12/04 06:41:05;;;;;;;19.30;10.50;;;;;;;-2.71;69.23;97759.87;105100;1324;25532;-82
2021/12/04 06:43:33;;;;;;;21.30;10.50;;;;;;;-2.76;69.05;97767.31;105061;1324;23989;-80
2021/12/04 06:46:02;;;;;;;18.80;10.20;;;;;;;-2.81;68.61;97773.75;105074;1325;22739;-81
2021/12/04 06:48:41;;;;;;;21.60;10.80;;;;;;;-2.85;68.72;97773.33;105078;1325;23346;-81
2021/12/04 06:51:29;;;;;;;23.40;10.40;;;;;;;-2.89;68.65;97774.48;105119;1322;22704;-81
2021/12/04 06:54:04;;;;;;;20.40;10.20;;;;;;;-2.93;68.54;97778.30;105221;1325;22670;-82
2021/12/04 06:56:36;;;;;;;23.80;11.30;;;;;;;-2.97;68.59;97781.67;105089;1324;22702;-81
2021/12/04 06:59:08;;;;;;;27.90;12.80;;;;;;;-3.00;68.58;97782.41;105096;1324;22571;-80
2021/12/04 07:01:36;;;;;;;34.30;16.20;;;;;;;-3.03;68.56;97780.76;105119;1324;22723;-80
2021/12/04 07:04:04;;;;;;;36.20;17.50;;;;;;;-2.97;69.02;97778.42;105181;1315;342943;-80
2021/12/04 07:06:32;;;;;;;30.30;15.20;;;;;;;-2.90;69.63;97774.34;105136;1325;22602;-81
2021/12/04 07:08:59;;;;;;;29.40;13.20;;;;;;;-2.84;70.39;97773.48;105121;1324;22744;-81
2021/12/04 07:11:28;;;;;;;33.10;14.60;;;;;;;-2.79;70.15;97772.34;105156;1324;22530;-83
2021/12/04 07:13:56;;;;;;;31.80;14.80;;;;;;;-2.73;69.86;97772.69;105173;1325;22678;-78
2021/12/04 07:16:24;;;;;;;25.30;11.90;;;;;;;-2.66;69.53;97764.00;105106;1318;22610;-79
2021/12/04 07:18:51;;;;;;;29.70;12.60;;;;;;;-2.60;69.19;97754.61;105151;1324;22600;-78
2021/12/04 07:21:18;;;;;;;35.80;16.30;;;;;;;-2.53;68.96;97754.98;105096;1325;22616;-79
2021/12/04 07:23:45;;;;;;;36.30;16.20;;;;;;;-2.49;68.92;97746.83;105111;1324;22683;-79
2021/12/04 07:26:13;;;;;;;36.40;16.40;;;;;;;-2.44;68.84;97743.13;105132;1325;22838;-78
2021/12/04 07:28:40;;;;;;;31.30;14.10;;;;;;;-2.40;68.63;97734.13;105156;1323;22592;-78
2021/12/04 07:31:08;;;;;;;34.50;15.00;;;;;;;-2.36;68.61;97731.64;105102;1324;23441;-79
2021/12/04 07:33:36;;;;;;;40.10;16.60;;;;;;;-2.30;68.61;97723.45;105089;1323;22732;-79
2021/12/04 07:36:04;;;;;;;36.50;14.00;;;;;;;-2.25;68.41;97727.23;105175;1322;25945;-79
2021/12/04 07:38:31;;;;;;;42.30;18.00;;;;;;;-2.20;68.38;97726.56;105213;1325;22624;-78
2021/12/04 07:41:00;;;;;;;29.00;11.90;;;;;;;-2.14;68.46;97736.64;105140;1325;22608;-79
2021/12/04 07:43:28;;;;;;;31.60;13.40;;;;;;;-2.10;68.28;97736.17;105098;1325;25043;-79
2021/12/04 07:45:55;;;;;;;26.90;10.70;;;;;;;-2.07;68.20;97734.40;105145;1324;22863;-78
2021/12/04 07:48:22;;;;;;;43.30;17.40;;;;;;;-2.01;68.29;97726.20;105121;1324;22659;-79
2021/12/04 07:50:49;;;;;;;40.40;15.80;;;;;;;-1.90;68.49;97724.85;105106;1324;22594;-79
2021/12/04 07:53:16;;;;;;;32.10;13.70;;;;;;;-1.80;69.00;97716.52;105115;1324;22597;-77
2021/12/04 07:55:43;;;;;;;37.20;13.70;;;;;;;-1.71;69.42;97716.08;105066;1324;22703;-77
2021/12/04 07:58:10;;;;;;;35.00;13.60;;;;;;;-1.67;68.98;97714.40;105030;1324;22681;-77
2021/12/04 08:00:37;;;;;;;34.80;14.60;;;;;;;-1.62;68.49;97704.86;105061;1324;22664;-77
2021/12/04 08:03:04;;;;;;;32.30;13.60;;;;;;;-1.56;67.98;97697.33;105039;1322;23515;-79
2021/12/04 08:05:31;;;;;;;33.10;13.40;;;;;;;-1.50;67.65;97696.63;105073;1324;22586;-78
2021/12/04 08:08:00;;;;;;;33.80;14.60;;;;;;;-1.47;67.39;97702.85;105061;1324;22628;-77
2021/12/04 08:10:28;;;;;;;32.00;12.20;;;;;;;-1.43;67.22;97703.40;105118;1325;22672;-77
2021/12/04 08:12:57;;;;;;;35.40;13.70;;;;;;;-1.39;67.18;97699.36;105164;1324;22541;-78
2021/12/04 08:15:24;;;;;;;24.80;10.30;;;;;;;-1.35;67.16;97700.94;105120;1324;22672;-76
2021/12/04 08:17:51;;;;;;;34.10;13.30;;;;;;;-1.29;66.75;97699.35;105154;1325;22585;-77
2021/12/04 08:20:18;;;;;;;31.70;12.80;;;;;;;-1.27;66.60;97698.45;105138;1325;22720;-77
2021/12/04 08:22:46;;;;;;;26.70;11.40;;;;;;;-1.24;66.44;97698.33;105113;1322;22759;-76
2021/12/04 08:25:16;;;;;;;29.00;12.10;;;;;;;-1.20;66.36;97692.41;105137;1324;25410;-76
2021/12/04 08:27:45;;;;;;;28.00;11.60;;;;;;;-1.16;66.33;97696.52;105172;1325;22506;-78
2021/12/04 08:30:17;;;;;;;22.20;10.10;;;;;;;-1.10;66.17;97694.84;105180;1325;25117;-80
2021/12/04 08:32:44;;;;;;;24.40;10.40;;;;;;;-1.06;65.80;97695.01;105111;1324;22650;-77
2021/12/04 08:35:18;;;;;;;41.60;16.90;;;;;;;-0.99;66.01;97696.31;105124;1325;22600;-78
2021/12/04 08:37:46;;;;;;;44.00;17.40;;;;;;;-0.92;66.24;97691.97;105100;1324;22684;-78
2021/12/04 08:40:15;;;;;;;47.40;20.10;;;;;;;-0.84;66.30;97695.29;105513;1325;22613;-78
2021/12/04 08:42:46;;;;;;;40.30;16.10;;;;;;;-0.76;66.06;97693.48;105163;1324;25605;-78
2021/12/04 08:45:16;;;;;;;40.10;16.00;;;;;;;-0.68;65.86;97688.08;105148;1323;22516;-77
2021/12/04 08:47:45;;;;;;;43.60;18.40;;;;;;;-0.62;66.02;97687.01;105102;1324;22651;-77
2021/12/04 08:50:19;;;;;;;26.20;11.10;;;;;;;-0.54;65.84;97691.34;105373;1324;22593;-78
2021/12/04 08:52:46;;;;;;;26.20;11.60;;;;;;;-0.46;65.38;97688.80;105143;1319;22614;-78
2021/12/04 08:55:14;;;;;;;31.10;14.00;;;;;;;-0.39;65.54;97686.85;105189;1324;22735;-77
2021/12/04 08:57:42;;;;;;;40.00;18.50;;;;;;;-0.32;65.53;97690.19;105154;1324;22721;-78
2021/12/04 09:00:15;;;;;;;27.30;12.20;;;;;;;-0.23;65.44;97686.95;105211;1324;22705;-78
2021/12/04 09:02:44;;;;;;;37.50;15.50;;;;;;;-0.15;64.93;97686.33;105192;1324;22585;-80
2021/12/04 09:05:14;;;;;;;28.40;14.10;;;;;;;-0.08;64.97;97681.73;105141;1325;23369;-79
2021/12/04 09:07:41;;;;;;;36.00;15.90;;;;;;;0.03;65.06;97680.67;105112;1325;22620;-79
2021/12/04 09:10:10;;;;;;;35.20;14.60;;;;;;;0.13;65.11;97674.29;105056;1324;24446;-80
2021/12/04 09:12:38;;;;;;;38.40;15.60;;;;;;;0.21;64.65;97670.20;105043;1324;25617;-79
2021/12/04 09:15:08;;;;;;;36.10;15.40;;;;;;;0.30;64.58;97667.60;105131;1322;22621;-77
2021/12/04 09:17:36;;;;;;;28.30;12.90;;;;;;;0.39;64.27;97662.80;105118;1325;22710;-79
2021/12/04 09:20:05;;;;;;;24.10;10.80;;;;;;;0.46;64.40;97662.53;105172;1324;22648;-80
2021/12/04 09:22:35;;;;;;;27.70;12.00;;;;;;;0.52;64.19;97660.09;105100;1325;23316;-79
2021/12/04 09:25:12;;;;;;;23.70;10.30;;;;;;;0.54;63.26;97654.14;105140;1324;26769;-79
2021/12/04 10:00:09;;;;;;;37.90;17.20;;;;;;;0.74;62.69;97596.58;105166;1325;25290;-82
2021/12/04 10:03:02;;;;;;;33.50;15.20;;;;;;;0.83;62.78;97594.16;105162;1325;22591;-78
2021/12/04 10:22:06;;;;;;;46.50;20.90;;;;;;;1.50;61.95;97583.47;105181;1324;22686;-79
2021/12/04 10:35:17;;;;;;;57.10;31.20;;;;;;;2.08;61.64;97564.79;105159;1325;25458;-76
2021/12/04 10:37:58;;;;;;;40.90;21.10;;;;;;;2.19;61.09;97553.77;105127;1323;24207;-76
2021/12/04 10:41:02;;;;;;;37.70;17.90;;;;;;;2.34;61.34;97550.50;105096;1325;22595;-75
2021/12/04 10:43:28;;;;;;;30.00;14.30;;;;;;;2.43;60.32;97538.70;105073;1325;23132;-76
2021/12/04 10:46:00;;;;;;;26.00;12.50;;;;;;;2.53;60.39;97533.23;105163;1324;22674;-78
2021/12/04 10:48:32;;;;;;;27.00;12.90;;;;;;;2.60;58.53;97530.26;105365;1324;22658;-78
2021/12/04 10:51:30;;;;;;;29.70;13.40;;;;;;;2.67;58.48;97527.54;105319;1325;26667;-77
2021/12/04 10:53:55;;;;;;;32.70;14.80;;;;;;;2.78;57.43;97520.42;105372;1323;25641;-78
2021/12/04 10:56:50;;;;;;;27.50;12.50;;;;;;;2.76;56.27;97517.08;105355;1325;22568;-78
2021/12/04 11:02:14;;;;;;;18.10;9.30;;;;;;;2.77;57.17;97514.48;105360;1324;22581;-78
2021/12/04 11:18:56;;;;;;;15.90;8.40;;;;;;;3.12;55.68;97477.17;105460;1325;22538;-78
2021/12/04 11:43:03;;;;;;;33.90;15.00;;;;;;;2.89;55.18;97435.05;105426;1325;22673;-77
2021/12/04 11:45:46;;;;;;;26.90;11.80;;;;;;;2.88;55.01;97432.02;105411;1325;26669;-76
2021/12/04 11:48:13;;;;;;;29.60;13.70;;;;;;;2.84;54.20;97426.90;105414;1324;22602;-77
2021/12/04 11:50:51;;;;;;;22.20;9.30;;;;;;;2.82;53.89;97425.11;105394;1324;22585;-78
2021/12/04 11:53:20;;;;;;;19.90;9.60;;;;;;;2.74;53.16;97418.82;105438;1325;23967;-78
2021/12/04 11:55:49;;;;;;;22.30;9.10;;;;;;;2.71;54.52;97416.94;105436;1325;22673;-77
2021/12/04 11:58:26;;;;;;;58.00;18.80;;;;;;;2.69;53.25;97415.84;105411;1325;22579;-77
2021/12/04 12:00:58;;;;;;;74.60;26.80;;;;;;;2.60;54.26;97415.60;105433;1325;22617;-75
2021/12/04 12:03:28;;;;;;;84.80;30.50;;;;;;;2.57;54.52;97419.39;105427;1319;25964;-76
2021/12/04 12:05:59;;;;;;;101.00;40.00;;;;;;;2.54;54.86;97415.91;105409;1325;22597;-77
2021/12/04 12:08:32;;;;;;;50.60;24.30;;;;;;;2.51;54.72;97412.98;105393;1325;22591;-76
2021/12/04 12:11:04;;;;;;;55.10;26.30;;;;;;;2.47;54.40;97412.34;105430;1324;22589;-77
2021/12/04 12:13:40;;;;;;;50.10;25.10;;;;;;;2.43;54.97;97415.14;105429;1322;22666;-77
2021/12/04 12:16:41;;;;;;;44.40;22.40;;;;;;;2.39;55.26;97411.55;105442;1323;22598;-78
2021/12/04 12:19:15;;;;;;;31.30;16.00;;;;;;;2.35;55.47;97409.01;105373;1324;22606;-77
2021/12/04 12:22:00;;;;;;;32.00;16.80;;;;;;;2.31;55.23;97406.33;105414;1325;22566;-77
2021/12/04 12:33:35;;;;;;;30.00;15.00;;;;;;;2.28;55.70;97400.78;105393;1325;22657;-76
2021/12/04 12:36:09;;;;;;;31.40;15.00;;;;;;;2.33;55.79;97401.77;105320;1324;22862;-77
2021/12/04 12:39:05;;;;;;;33.00;15.10;;;;;;;2.35;55.94;97403.01;105427;1322;22568;-77
2021/12/04 12:41:42;;;;;;;28.70;13.60;;;;;;;2.39;55.99;97399.35;105447;1324;22587;-77
2021/12/04 12:44:29;;;;;;;38.80;17.50;;;;;;;2.43;55.39;97402.75;105421;1322;22683;-77
2021/12/04 12:47:04;;;;;;;38.40;16.80;;;;;;;2.49;55.68;97402.83;105411;1324;22601;-77
2021/12/04 12:49:40;;;;;;;35.70;15.10;;;;;;;2.54;55.76;97402.38;105427;1325;22595;-77
2021/12/04 12:52:13;;;;;;;37.90;15.40;;;;;;;2.59;55.46;97401.93;105248;1325;23150;-77
2021/12/04 12:55:01;;;;;;;32.70;15.70;;;;;;;2.66;55.55;97401.08;105157;1324;22644;-80
2021/12/04 12:57:31;;;;;;;32.80;13.60;;;;;;;2.72;55.82;97404.67;105167;1325;22723;-79
2021/12/04 13:14:18;;;;;;;23.60;10.40;;;;;;;2.93;54.48;97406.79;105170;1325;22720;-77
2021/12/04 13:16:49;;;;;;;31.00;13.70;;;;;;;2.95;54.88;97407.54;105091;1324;22598;-78
2021/12/04 13:19:19;;;;;;;32.80;14.00;;;;;;;2.99;54.64;97408.53;105130;1325;22527;-77
2021/12/04 13:21:52;;;;;;;35.70;16.00;;;;;;;3.04;54.66;97406.94;105148;1325;22690;-78
2021/12/04 13:24:24;;;;;;;38.50;16.50;;;;;;;3.04;54.58;97411.58;105166;1325;24308;-77
2021/12/04 13:26:53;;;;;;;45.20;22.70;;;;;;;3.04;54.95;97408.82;105155;1325;22575;-77
2021/12/04 13:29:24;;;;;;;44.30;22.70;;;;;;;3.05;55.37;97406.69;105189;1325;22623;-77
2021/12/04 13:31:56;;;;;;;48.00;22.20;;;;;;;3.05;54.93;97406.34;105119;1325;22685;-76
2021/12/04 13:34:27;;;;;;;42.00;20.40;;;;;;;3.06;54.48;97405.24;105178;1325;22605;-78
2021/12/04 13:36:56;;;;;;;43.50;20.30;;;;;;;3.07;55.05;97406.92;105174;1325;25422;-77
2021/12/04 13:39:23;;;;;;;46.20;19.20;;;;;;;3.05;54.62;97408.89;105147;1325;22574;-76
2021/12/04 13:41:52;;;;;;;46.00;21.40;;;;;;;3.02;54.82;97413.02;105134;1325;22587;-76
2021/12/04 13:44:24;;;;;;;63.30;28.30;;;;;;;2.99;54.40;97408.39;105181;1325;23926;-77
2021/12/04 13:47:03;;;;;;;44.90;22.10;;;;;;;2.94;54.42;97406.25;105225;1324;22661;-76
2021/12/04 13:50:00;;;;;;;38.70;17.70;;;;;;;2.90;54.45;97408.34;105161;1325;22615;-77
2021/12/04 13:52:32;;;;;;;44.70;19.30;;;;;;;2.79;54.75;97409.30;105172;1325;22606;-76
2021/12/04 13:55:10;;;;;;;40.60;18.10;;;;;;;2.72;54.27;97410.16;105146;1324;26002;-77
2021/12/04 13:57:41;;;;;;;42.90;20.60;;;;;;;2.60;54.22;97413.73;105154;1320;24202;-76
2021/12/04 14:00:11;;;;;;;40.40;16.90;;;;;;;2.49;54.07;97410.88;105134;1320;22729;-76
2021/12/04 14:02:39;;;;;;;101.60;34.40;;;;;;;2.36;54.66;97407.94;105083;1325;22615;-77
2021/12/04 14:05:26;;;;;;;49.90;21.40;;;;;;;2.27;55.53;97410.31;105090;1325;22648;-76
2021/12/04 14:07:57;;;;;;;32.60;18.00;;;;;;;2.10;57.33;97415.11;105170;1325;24967;-76
2021/12/04 14:10:30;;;;;;;46.30;22.90;;;;;;;1.95;57.58;97417.11;105152;1325;22595;-76
2021/12/04 14:12:59;;;;;;;43.10;20.10;;;;;;;1.80;58.93;97415.39;105161;1325;26346;-75
2021/12/04 14:15:27;;;;;;;34.80;13.90;;;;;;;1.72;58.56;97415.81;105094;1325;26734;-77
2021/12/04 14:18:01;;;;;;;40.30;16.20;;;;;;;1.63;59.65;97417.83;105122;1325;22595;-77
2021/12/04 14:20:30;;;;;;;66.50;23.60;;;;;;;1.51;59.73;97412.55;105139;1325;22598;-75
2021/12/04 14:22:58;;;;;;;51.70;20.90;;;;;;;1.44;59.75;97411.15;105112;1324;22684;-75
2021/12/04 14:25:26;;;;;;;44.60;19.60;;;;;;;1.38;60.59;97408.70;105170;1325;22650;-76
2021/12/04 14:27:55;;;;;;;37.70;16.30;;;;;;;1.36;61.38;97405.05;105093;1325;22732;-76
2021/12/04 14:30:32;;;;;;;47.30;19.10;;;;;;;1.30;62.51;97401.36;105072;1325;22804;-76
2021/12/04 14:33:01;;;;;;;45.00;20.80;;;;;;;1.26;63.59;97398.13;105167;1325;22584;-76
2021/12/04 14:35:34;;;;;;;41.60;18.30;;;;;;;1.17;63.90;97400.13;105316;1325;22658;-77
2021/12/04 14:38:06;;;;;;;54.10;23.80;;;;;;;1.08;63.84;97399.47;105418;1325;22723;-77
2021/12/04 14:40:36;;;;;;;46.30;19.60;;;;;;;0.98;64.17;97398.77;105427;1325;22655;-77
2021/12/04 14:43:05;;;;;;;50.20;22.80;;;;;;;0.93;63.92;97401.08;105416;1322;22660;-75